createdAt,value
2018-07-06T00:00:08.286Z,100075
2018-07-06T00:01:13.549Z,100064
2018-07-06T00:02:18.730Z,100075
2018-07-06T00:03:24.175Z,100070
2018-07-06T00:04:44.530Z,100075
2018-07-06T00:05:49.715Z,100078
2018-07-06T00:06:55.096Z,100075
2018-07-06T00:08:00.269Z,100075
2018-07-06T00:09:05.415Z,100070
2018-07-06T00:10:11.210Z,100064
2018-07-06T00:11:16.101Z,100075
2018-07-06T00:12:21.579Z,100075
2018-07-06T00:13:26.865Z,100075
2018-07-06T00:14:32.306Z,100075
2018-07-06T00:15:37.833Z,100078
2018-07-06T00:16:42.982Z,100084
2018-07-06T00:17:47.859Z,100084
2018-07-06T00:18:53.259Z,100078
2018-07-06T00:19:58.411Z,100087
2018-07-06T00:21:03.581Z,100087
2018-07-06T00:22:08.857Z,100078
2018-07-06T00:23:14.317Z,100075
2018-07-06T00:24:19.754Z,100075
2018-07-06T00:25:24.711Z,100087
2018-07-06T00:26:30.153Z,100081
2018-07-06T00:27:35.850Z,100081
2018-07-06T00:28:40.463Z,100075
2018-07-06T00:29:45.897Z,100075
2018-07-06T00:30:51.608Z,100084
2018-07-06T00:31:57.057Z,100089
2018-07-06T00:33:01.933Z,100089
2018-07-06T00:34:06.779Z,100084
2018-07-06T00:35:11.940Z,100078
2018-07-06T00:36:17.385Z,100087
2018-07-06T00:37:23.076Z,100092
2018-07-06T00:38:28.510Z,100092
2018-07-06T00:39:33.962Z,100089
2018-07-06T00:40:39.406Z,100092
2018-07-06T00:41:44.861Z,100098
2018-07-06T00:42:50.576Z,100092
2018-07-06T00:43:56.019Z,100095
2018-07-06T00:45:01.778Z,100098
2018-07-06T00:46:06.343Z,100098
2018-07-06T00:47:11.218Z,100104
2018-07-06T00:48:16.380Z,100095
2018-07-06T00:49:22.084Z,100101
2018-07-06T00:50:27.518Z,100101
2018-07-06T00:51:33.485Z,100104
2018-07-06T00:52:38.928Z,100104
2018-07-06T00:53:43.805Z,100098
2018-07-06T00:54:49.694Z,100113
2018-07-06T00:55:55.061Z,100107
2018-07-06T00:57:00.210Z,100104
2018-07-06T00:58:05.071Z,100113
2018-07-06T00:59:09.942Z,100101
2018-07-06T01:00:15.409Z,100095
2018-07-06T01:01:21.198Z,100101
2018-07-06T01:02:26.075Z,100110
2018-07-06T01:03:32.026Z,100101
2018-07-06T01:04:37.464Z,100110
2018-07-06T01:05:42.945Z,100107
2018-07-06T01:06:48.782Z,100107
2018-07-06T01:07:53.953Z,100113
2018-07-06T01:08:59.116Z,100113
2018-07-06T01:10:05.036Z,100110
2018-07-06T01:11:09.982Z,100104
2018-07-06T01:12:15.145Z,100101
2018-07-06T01:13:20.561Z,100110
2018-07-06T01:14:25.728Z,100107
2018-07-06T01:15:31.580Z,100118
2018-07-06T01:16:37.039Z,100116
2018-07-06T01:17:42.198Z,100116
2018-07-06T01:18:47.892Z,100113
2018-07-06T01:19:53.331Z,100113
2018-07-06T01:20:58.769Z,100107
2018-07-06T01:22:04.176Z,100121
2018-07-06T01:23:08.771Z,100118
2018-07-06T01:24:13.658Z,100113
2018-07-06T01:25:19.168Z,100124
2018-07-06T01:26:24.612Z,100118
2018-07-06T01:27:30.458Z,100121
2018-07-06T01:28:35.623Z,100121
2018-07-06T01:29:40.504Z,100118
2018-07-06T01:30:46.011Z,100127
2018-07-06T01:31:51.476Z,100110
2018-07-06T01:32:56.914Z,100118
2018-07-06T01:34:02.349Z,100121
2018-07-06T01:35:07.523Z,100121
2018-07-06T01:36:12.974Z,100113
2018-07-06T01:37:18.241Z,100118
2018-07-06T01:38:23.671Z,100124
2018-07-06T01:39:29.531Z,100113
2018-07-06T01:40:34.134Z,100118
2018-07-06T01:41:39.007Z,100121
2018-07-06T01:42:44.703Z,100127
2018-07-06T01:43:50.158Z,100127
2018-07-06T01:44:55.619Z,100121
2018-07-06T01:46:01.033Z,100124
2018-07-06T01:47:06.185Z,100118
2018-07-06T01:48:11.055Z,100118
2018-07-06T01:49:16.569Z,100124
2018-07-06T01:50:22.012Z,100121
2018-07-06T01:51:26.821Z,100121
2018-07-06T01:52:32.309Z,100113
2018-07-06T01:53:37.487Z,100130
2018-07-06T01:54:43.192Z,100121
2018-07-06T01:55:47.781Z,100127
2018-07-06T01:56:53.260Z,100133
2018-07-06T01:57:58.973Z,100130
2018-07-06T01:59:04.416Z,100124
2018-07-06T02:00:09.583Z,100127
2018-07-06T02:01:14.991Z,100130
2018-07-06T02:02:20.430Z,100142
2018-07-06T02:03:27.078Z,100136
2018-07-06T02:04:31.930Z,100127
2018-07-06T02:05:37.364Z,100127
2018-07-06T02:06:43.213Z,100130
2018-07-06T02:07:48.659Z,100127
2018-07-06T02:08:53.822Z,100133
2018-07-06T02:09:59.667Z,100133
2018-07-06T02:11:05.120Z,100133
2018-07-06T02:12:10.270Z,100133
2018-07-06T02:13:16.120Z,100127
2018-07-06T02:14:21.555Z,100136
2018-07-06T02:15:27.414Z,100142
2018-07-06T02:16:32.863Z,100136
2018-07-06T02:17:38.330Z,100127
2018-07-06T02:18:43.466Z,100130
2018-07-06T02:19:48.947Z,100127
2018-07-06T02:20:53.828Z,100136
2018-07-06T02:21:59.639Z,100136
2018-07-06T02:23:05.095Z,100145
2018-07-06T02:24:10.253Z,100139
2018-07-06T02:25:15.823Z,100136
2018-07-06T02:26:21.261Z,100142
2018-07-06T02:27:27.208Z,100145
2018-07-06T02:28:32.365Z,100139
2018-07-06T02:29:37.524Z,100145
2018-07-06T02:30:43.040Z,100149
2018-07-06T02:31:48.205Z,100149
2018-07-06T02:32:53.661Z,100147
2018-07-06T02:33:58.230Z,100149
2018-07-06T02:35:03.106Z,100139
2018-07-06T02:36:08.266Z,100145
2018-07-06T02:37:14.120Z,100142
2018-07-06T02:38:19.569Z,100136
2018-07-06T02:39:25.532Z,100149
2018-07-06T02:40:30.664Z,100142
2018-07-06T02:41:35.819Z,100145
2018-07-06T02:42:41.512Z,100149
2018-07-06T02:43:46.967Z,100149
2018-07-06T02:44:52.404Z,100149
2018-07-06T02:45:57.825Z,100155
2018-07-06T02:47:02.987Z,100145
2018-07-06T02:48:08.424Z,100149
2018-07-06T02:49:14.037Z,100158
2018-07-06T02:50:19.474Z,100158
2018-07-06T02:51:24.975Z,100158
2018-07-06T02:52:29.687Z,100158
2018-07-06T02:53:35.459Z,100155
2018-07-06T02:54:40.863Z,100152
2018-07-06T02:55:46.027Z,100158
2018-07-06T02:56:51.474Z,100155
2018-07-06T02:57:57.159Z,100158
2018-07-06T02:59:02.344Z,100164
2018-07-06T03:00:06.941Z,100164
2018-07-06T03:01:12.369Z,100161
2018-07-06T03:02:17.807Z,100173
2018-07-06T03:03:22.972Z,100178
2018-07-06T03:04:29.375Z,100164
2018-07-06T03:05:34.536Z,100161
2018-07-06T03:06:40.400Z,100170
2018-07-06T03:07:45.550Z,100167
2018-07-06T03:08:50.702Z,100164
2018-07-06T03:09:56.270Z,100172
2018-07-06T03:11:01.779Z,100167
2018-07-06T03:12:06.929Z,100175
2018-07-06T03:13:12.069Z,100170
2018-07-06T03:14:17.248Z,100172
2018-07-06T03:15:22.122Z,100170
2018-07-06T03:16:27.644Z,100170
2018-07-06T03:17:32.837Z,100178
2018-07-06T03:18:38.520Z,100172
2018-07-06T03:19:43.979Z,100172
2018-07-06T03:20:49.141Z,100181
2018-07-06T03:21:54.855Z,100175
2018-07-06T03:22:59.463Z,100181
2018-07-06T03:24:04.624Z,100187
2018-07-06T03:25:09.916Z,100175
2018-07-06T03:26:15.096Z,100170
2018-07-06T03:27:20.539Z,100175
2018-07-06T03:28:41.799Z,100175
2018-07-06T03:29:49.403Z,100178
2018-07-06T03:30:55.245Z,100178
2018-07-06T03:32:00.680Z,100172
2018-07-06T03:33:05.584Z,100175
2018-07-06T03:34:11.280Z,100181
2018-07-06T03:35:16.449Z,100184
2018-07-06T03:36:21.613Z,100181
2018-07-06T03:37:27.416Z,100184
2018-07-06T03:38:32.332Z,100184
2018-07-06T03:39:37.741Z,100175
2018-07-06T03:40:43.181Z,100181
2018-07-06T03:41:48.646Z,100184
2018-07-06T03:42:54.211Z,100196
2018-07-06T03:43:59.656Z,100193
2018-07-06T03:45:05.094Z,100193
2018-07-06T03:46:10.254Z,100193
2018-07-06T03:47:15.703Z,100193
2018-07-06T03:48:21.141Z,100190
2018-07-06T03:49:27.300Z,100193
2018-07-06T03:50:32.460Z,100193
2018-07-06T03:51:38.151Z,100193
2018-07-06T03:52:43.604Z,100199
2018-07-06T03:53:48.768Z,100204
2018-07-06T03:54:54.283Z,100193
2018-07-06T03:55:59.709Z,100199
2018-07-06T03:57:05.162Z,100210
2018-07-06T03:58:10.730Z,100204
2018-07-06T03:59:15.887Z,100201
2018-07-06T04:00:21.062Z,100210
2018-07-06T04:01:27.255Z,100199
2018-07-06T04:02:32.448Z,100216
2018-07-06T04:03:37.686Z,100210
2018-07-06T04:04:43.138Z,100213
2018-07-06T04:05:48.647Z,100210
2018-07-06T04:06:54.337Z,100210
2018-07-06T04:07:59.796Z,100210
2018-07-06T04:09:04.947Z,100204
2018-07-06T04:10:09.790Z,100207
2018-07-06T04:11:15.232Z,100207
2018-07-06T04:12:20.698Z,100207
2018-07-06T04:13:26.703Z,100207
2018-07-06T04:14:31.865Z,100201
2018-07-06T04:15:37.712Z,100213
2018-07-06T04:16:43.162Z,100213
2018-07-06T04:17:48.341Z,100216
2018-07-06T04:18:54.185Z,100213
2018-07-06T04:19:59.059Z,100207
2018-07-06T04:21:04.214Z,100216
2018-07-06T04:22:09.780Z,100213
2018-07-06T04:23:15.244Z,100219
2018-07-06T04:24:20.412Z,100216
2018-07-06T04:25:25.974Z,100219
2018-07-06T04:26:31.629Z,100222
2018-07-06T04:27:37.432Z,100216
2018-07-06T04:28:42.877Z,100216
2018-07-06T04:29:48.329Z,100230
2018-07-06T04:30:53.466Z,100222
2018-07-06T04:31:58.634Z,100233
2018-07-06T04:33:03.806Z,100228
2018-07-06T04:34:08.722Z,100225
2018-07-06T04:35:13.894Z,100219
2018-07-06T04:36:19.042Z,100222
2018-07-06T04:37:24.888Z,100219
2018-07-06T04:38:30.073Z,100230
2018-07-06T04:39:36.818Z,100222
2018-07-06T04:40:42.273Z,100233
2018-07-06T04:41:47.132Z,100228
2018-07-06T04:42:52.728Z,100236
2018-07-06T04:43:58.180Z,100228
2018-07-06T04:45:03.063Z,100230
2018-07-06T04:46:08.651Z,100233
2018-07-06T04:47:14.093Z,100236
2018-07-06T04:48:19.265Z,100233
2018-07-06T04:49:24.422Z,100230
2018-07-06T04:50:29.322Z,100230
2018-07-06T04:51:35.176Z,100230
2018-07-06T04:52:40.618Z,100230
2018-07-06T04:53:46.062Z,100230
2018-07-06T04:54:51.499Z,100228
2018-07-06T04:55:56.943Z,100233
2018-07-06T04:57:02.105Z,100236
2018-07-06T04:58:07.212Z,100236
2018-07-06T04:59:12.105Z,100233
2018-07-06T05:00:17.286Z,100239
2018-07-06T05:01:22.704Z,100222
2018-07-06T05:02:28.142Z,100236
2018-07-06T05:03:33.557Z,100239
2018-07-06T05:04:38.724Z,100239
2018-07-06T05:05:43.882Z,100239
2018-07-06T05:06:49.774Z,100242
2018-07-06T05:07:55.479Z,100242
2018-07-06T05:09:00.643Z,100245
2018-07-06T05:10:06.207Z,100242
2018-07-06T05:11:11.664Z,100248
2018-07-06T05:12:16.811Z,100251
2018-07-06T05:13:22.524Z,100251
2018-07-06T05:14:27.987Z,100248
2018-07-06T05:15:33.686Z,100248
2018-07-06T05:16:38.960Z,100251
2018-07-06T05:17:44.431Z,100248
2018-07-06T05:18:50.225Z,100251
2018-07-06T05:19:55.676Z,100248
2018-07-06T05:21:00.836Z,100251
2018-07-06T05:22:05.975Z,100251
2018-07-06T05:23:11.143Z,100254
2018-07-06T05:24:16.581Z,100245
2018-07-06T05:25:21.714Z,100245
2018-07-06T05:26:27.155Z,100256
2018-07-06T05:27:32.695Z,100265
2018-07-06T05:28:38.141Z,100259
2018-07-06T05:29:43.322Z,100265
2018-07-06T05:30:48.316Z,100256
2018-07-06T05:31:53.262Z,100262
2018-07-06T05:32:58.436Z,100254
2018-07-06T05:34:03.993Z,100256
2018-07-06T05:35:09.192Z,100262
2018-07-06T05:36:14.639Z,100265
2018-07-06T05:37:20.432Z,100268
2018-07-06T05:38:25.600Z,100268
2018-07-06T05:39:31.671Z,100265
2018-07-06T05:40:36.833Z,100265
2018-07-06T05:41:42.278Z,100268
2018-07-06T05:42:47.982Z,100265
2018-07-06T05:43:53.458Z,100271
2018-07-06T05:44:58.361Z,100274
2018-07-06T05:46:03.872Z,100280
2018-07-06T05:47:09.046Z,100262
2018-07-06T05:48:14.212Z,100265
2018-07-06T05:49:19.638Z,100271
2018-07-06T05:50:25.086Z,100274
2018-07-06T05:51:30.501Z,100277
2018-07-06T05:52:35.688Z,100274
2018-07-06T05:53:41.144Z,100277
2018-07-06T05:54:46.766Z,100274
2018-07-06T05:55:52.213Z,100271
2018-07-06T05:56:57.460Z,100280
2018-07-06T05:58:03.152Z,100274
2018-07-06T05:59:08.032Z,100280
2018-07-06T06:00:12.972Z,100280
2018-07-06T06:01:18.546Z,100280
2018-07-06T06:02:24.002Z,100280
2018-07-06T06:03:30.598Z,100288
2018-07-06T06:04:35.793Z,100283
2018-07-06T06:05:41.045Z,100280
2018-07-06T06:06:46.884Z,100283
2018-07-06T06:07:52.355Z,100280
2018-07-06T06:08:57.962Z,100285
2018-07-06T06:10:03.347Z,100290
2018-07-06T06:11:08.238Z,100288
2018-07-06T06:12:13.130Z,100280
2018-07-06T06:13:19.249Z,100283
2018-07-06T06:14:24.616Z,100286
2018-07-06T06:15:30.049Z,100290
2018-07-06T06:16:34.920Z,100299
2018-07-06T06:17:40.091Z,100299
2018-07-06T06:18:45.878Z,100293
2018-07-06T06:19:51.772Z,100299
2018-07-06T06:20:56.710Z,100293
2018-07-06T06:22:02.131Z,100302
2018-07-06T06:23:06.172Z,100305
2018-07-06T06:24:11.613Z,100302
2018-07-06T06:25:16.464Z,100305
2018-07-06T06:26:21.620Z,100296
2018-07-06T06:27:27.333Z,100305
2018-07-06T06:28:32.495Z,100302
2018-07-06T06:29:37.940Z,100305
2018-07-06T06:30:43.635Z,100311
2018-07-06T06:31:49.116Z,100305
2018-07-06T06:32:54.636Z,100305
2018-07-06T06:34:00.701Z,100317
2018-07-06T06:35:05.835Z,100314
2018-07-06T06:36:10.700Z,100308
2018-07-06T06:37:16.460Z,100308
2018-07-06T06:38:21.908Z,100308
2018-07-06T06:39:27.527Z,100308
2018-07-06T06:40:33.231Z,100311
2018-07-06T06:41:38.121Z,100308
2018-07-06T06:42:43.526Z,100296
2018-07-06T06:43:48.419Z,100311
2018-07-06T06:44:53.590Z,100314
2018-07-06T06:45:59.287Z,100311
2018-07-06T06:47:03.886Z,100314
2018-07-06T06:48:09.051Z,100314
2018-07-06T06:49:14.471Z,100317
2018-07-06T06:50:19.632Z,100320
2018-07-06T06:52:44.027Z,100325
2018-07-06T06:53:49.210Z,100325
2018-07-06T06:54:55.045Z,100320
2018-07-06T06:56:00.248Z,100314
2018-07-06T06:57:05.419Z,100314
2018-07-06T06:58:11.158Z,100331
2018-07-06T06:59:15.756Z,100320
2018-07-06T07:00:27.531Z,100325
2018-07-06T07:01:33.336Z,100320
2018-07-06T07:02:38.217Z,100322
2018-07-06T07:03:43.914Z,100331
2018-07-06T07:04:49.094Z,100317
2018-07-06T07:05:54.166Z,100325
2018-07-06T07:06:59.676Z,100336
2018-07-06T07:08:04.842Z,100336
2018-07-06T07:09:09.719Z,100331
2018-07-06T07:10:15.237Z,100325
2018-07-06T07:11:20.397Z,100331
2018-07-06T07:12:27.035Z,100334
2018-07-06T07:13:31.920Z,100348
2018-07-06T07:14:37.408Z,100334
2018-07-06T07:15:42.959Z,100325
2018-07-06T07:16:48.189Z,100339
2018-07-06T07:17:53.668Z,100339
2018-07-06T07:18:59.132Z,100345
2018-07-06T07:20:04.329Z,100339
2018-07-06T07:21:09.424Z,100342
2018-07-06T07:22:15.321Z,100334
2018-07-06T07:23:20.484Z,100348
2018-07-06T07:24:27.042Z,100334
2018-07-06T07:25:32.226Z,100339
2018-07-06T07:26:37.662Z,100342
2018-07-06T07:27:43.392Z,100345
2018-07-06T07:28:48.834Z,100339
2018-07-06T07:29:54.304Z,100335
2018-07-06T07:30:59.823Z,100337
2018-07-06T07:32:04.996Z,100339
2018-07-06T07:33:09.581Z,100342
2018-07-06T07:34:14.553Z,100345
2018-07-06T07:35:19.993Z,100348
2018-07-06T07:36:40.068Z,100335
2018-07-06T07:37:45.249Z,100345
2018-07-06T07:38:50.731Z,100340
2018-07-06T07:39:56.417Z,100351
2018-07-06T07:41:01.600Z,100354
2018-07-06T07:42:06.236Z,100354
2018-07-06T07:43:11.923Z,100351
2018-07-06T07:44:17.093Z,100354
2018-07-06T07:45:22.548Z,100348
2018-07-06T07:46:28.577Z,100354
2018-07-06T07:47:33.964Z,100351
2018-07-06T07:48:39.675Z,100351
2018-07-06T07:49:44.844Z,100348
2018-07-06T07:50:49.723Z,100348
2018-07-06T07:51:55.148Z,100351
2018-07-06T07:53:00.639Z,100343
2018-07-06T07:54:05.247Z,100348
2018-07-06T07:55:11.091Z,100360
2018-07-06T07:56:16.865Z,100351
2018-07-06T07:57:22.511Z,100351
2018-07-06T07:58:28.201Z,100360
2018-07-06T07:59:33.532Z,100357
2018-07-06T08:00:39.382Z,100360
2018-07-06T08:01:45.490Z,100360
2018-07-06T08:02:50.380Z,100354
2018-07-06T08:03:55.497Z,100357
2018-07-06T08:05:00.965Z,100366
2018-07-06T08:06:05.516Z,100357
2018-07-06T08:07:10.771Z,100366
2018-07-06T08:08:15.941Z,100372
2018-07-06T08:09:20.538Z,100372
2018-07-06T08:10:25.390Z,100369
2018-07-06T08:11:36.744Z,100375
2018-07-06T08:12:42.605Z,100372
2018-07-06T08:13:48.048Z,100378
2018-07-06T08:14:53.205Z,100366
2018-07-06T08:15:58.819Z,100381
2018-07-06T08:17:04.270Z,100375
2018-07-06T08:18:09.640Z,100380
2018-07-06T08:19:14.777Z,100383
2018-07-06T08:20:19.945Z,100386
2018-07-06T08:21:25.706Z,100389
2018-07-06T08:22:31.248Z,100375
2018-07-06T08:23:36.412Z,100389
2018-07-06T08:24:42.125Z,100380
2018-07-06T08:25:47.023Z,100383
2018-07-06T08:26:52.190Z,100389
2018-07-06T08:27:57.603Z,100389
2018-07-06T08:29:03.296Z,100401
2018-07-06T08:30:08.469Z,100401
2018-07-06T08:31:13.842Z,100386
2018-07-06T08:32:19.035Z,100398
2018-07-06T08:33:24.198Z,100398
2018-07-06T08:34:44.269Z,100404
2018-07-06T08:35:49.708Z,100398
2018-07-06T08:36:55.556Z,100395
2018-07-06T08:38:00.722Z,100398
2018-07-06T08:39:05.595Z,100398
2018-07-06T08:40:11.440Z,100398
2018-07-06T08:41:16.894Z,100401
2018-07-06T08:42:22.080Z,100401
2018-07-06T08:43:28.017Z,100404
2018-07-06T08:44:33.486Z,100404
2018-07-06T08:45:38.512Z,100401
2018-07-06T08:46:43.412Z,100407
2018-07-06T08:47:48.853Z,100404
2018-07-06T08:48:54.552Z,100395
2018-07-06T08:49:59.433Z,100398
2018-07-06T08:51:04.877Z,100401
2018-07-06T08:52:10.898Z,100395
2018-07-06T08:53:16.878Z,100395
2018-07-06T08:54:21.472Z,100395
2018-07-06T08:55:27.238Z,100398
2018-07-06T08:56:32.693Z,100401
2018-07-06T08:57:37.382Z,100404
2018-07-06T08:58:42.832Z,100401
2018-07-06T08:59:48.285Z,100392
2018-07-06T09:00:53.994Z,100401
2018-07-06T09:01:58.742Z,100401
2018-07-06T09:03:03.634Z,100398
2018-07-06T09:04:09.253Z,100392
2018-07-06T09:05:14.438Z,100401
2018-07-06T09:06:19.309Z,100404
2018-07-06T09:07:24.440Z,100398
2018-07-06T09:08:29.335Z,100392
2018-07-06T09:09:34.614Z,100398
2018-07-06T09:10:39.784Z,100407
2018-07-06T09:11:44.946Z,100392
2018-07-06T09:12:51.075Z,100401
2018-07-06T09:13:56.275Z,100395
2018-07-06T09:15:01.431Z,100404
2018-07-06T09:16:07.142Z,100398
2018-07-06T09:17:11.800Z,100407
2018-07-06T09:18:16.968Z,100395
2018-07-06T09:19:22.528Z,100407
2018-07-06T09:20:28.049Z,100404
2018-07-06T09:21:33.581Z,100398
2018-07-06T09:22:38.180Z,100398
2018-07-06T09:23:43.917Z,100404
2018-07-06T09:24:49.801Z,100405
2018-07-06T09:25:55.882Z,100405
2018-07-06T09:27:03.522Z,100393
2018-07-06T09:28:08.900Z,100407
2018-07-06T09:29:13.854Z,100398
2018-07-06T09:30:18.716Z,100401
2018-07-06T09:31:23.571Z,100398
2018-07-06T09:32:28.943Z,100398
2018-07-06T09:33:34.629Z,100404
2018-07-06T09:34:40.073Z,100401
2018-07-06T09:35:45.582Z,100404
2018-07-06T09:36:51.220Z,100407
2018-07-06T09:37:56.388Z,100410
2018-07-06T09:39:01.551Z,100413
2018-07-06T09:40:05.968Z,100407
2018-07-06T09:41:10.553Z,100410
2018-07-06T09:42:16.041Z,100407
2018-07-06T09:43:21.654Z,100413
2018-07-06T09:44:26.951Z,100405
2018-07-06T09:45:32.479Z,100405
2018-07-06T09:46:37.364Z,100410
2018-07-06T09:47:42.826Z,100410
2018-07-06T09:48:47.783Z,100407
2018-07-06T09:49:52.956Z,100413
2018-07-06T09:50:58.645Z,100410
2018-07-06T09:52:04.399Z,100410
2018-07-06T09:53:09.573Z,100410
2018-07-06T09:54:14.731Z,100410
2018-07-06T09:55:19.642Z,100410
2018-07-06T09:56:24.993Z,100416
2018-07-06T09:57:30.841Z,100413
2018-07-06T09:58:36.500Z,100416
2018-07-06T09:59:41.406Z,100416
2018-07-06T10:00:47.238Z,100407
2018-07-06T10:01:52.687Z,100407
2018-07-06T10:02:58.125Z,100401
2018-07-06T10:04:02.973Z,100413
2018-07-06T10:05:07.847Z,100402
2018-07-06T10:06:12.188Z,100413
2018-07-06T10:07:17.808Z,100405
2018-07-06T10:08:23.283Z,100404
2018-07-06T10:09:28.781Z,100405
2018-07-06T10:10:33.965Z,100396
2018-07-06T10:11:39.117Z,100405
2018-07-06T10:12:44.529Z,100402
2018-07-06T10:13:49.996Z,100387
2018-07-06T10:14:55.173Z,100393
2018-07-06T10:16:00.673Z,100399
2018-07-06T10:17:05.290Z,100402
2018-07-06T10:18:10.166Z,100402
2018-07-06T10:19:15.673Z,100410
2018-07-06T10:20:20.867Z,100405
2018-07-06T10:21:27.317Z,100405
2018-07-06T10:22:32.762Z,100405
2018-07-06T10:23:37.946Z,100410
2018-07-06T10:24:43.520Z,100405
2018-07-06T10:25:48.603Z,100410
2018-07-06T10:26:54.313Z,100413
2018-07-06T10:27:59.545Z,100410
2018-07-06T10:29:04.726Z,100413
2018-07-06T10:30:09.894Z,100402
2018-07-06T10:31:15.684Z,100402
2018-07-06T10:32:21.137Z,100399
2018-07-06T10:33:41.451Z,100399
2018-07-06T10:34:46.542Z,100402
2018-07-06T10:35:52.030Z,100405
2018-07-06T10:36:57.161Z,100407
2018-07-06T10:38:02.313Z,100399
2018-07-06T10:39:07.425Z,100405
2018-07-06T10:40:13.007Z,100399
2018-07-06T10:41:18.521Z,100410
2018-07-06T10:42:23.889Z,100422
2018-07-06T10:43:29.783Z,100399
2018-07-06T10:44:35.230Z,100405
2018-07-06T10:45:40.385Z,100405
2018-07-06T10:46:45.822Z,100396
2018-07-06T10:47:51.424Z,100408
2018-07-06T10:48:56.948Z,100390
2018-07-06T10:50:02.310Z,100405
2018-07-06T10:51:06.644Z,100393
2018-07-06T10:52:11.794Z,100396
2018-07-06T10:53:16.406Z,100387
2018-07-06T10:54:21.309Z,100399
2018-07-06T10:55:26.574Z,100405
2018-07-06T10:56:31.833Z,100408
2018-07-06T10:57:37.721Z,100405
2018-07-06T10:58:43.410Z,100408
2018-07-06T10:59:48.480Z,100408
2018-07-06T11:00:53.996Z,100396
2018-07-06T11:01:58.606Z,100402
2018-07-06T11:03:03.974Z,100399
2018-07-06T11:04:09.782Z,100413
2018-07-06T11:05:15.238Z,100396
2018-07-06T11:06:20.894Z,100405
2018-07-06T11:07:26.433Z,100405
2018-07-06T11:08:32.079Z,100408
2018-07-06T11:09:37.786Z,100407
2018-07-06T11:10:43.227Z,100402
2018-07-06T11:11:48.673Z,100399
2018-07-06T11:12:54.083Z,100402
2018-07-06T11:13:59.237Z,100396
2018-07-06T11:15:05.016Z,100399
2018-07-06T11:16:10.634Z,100407
2018-07-06T11:17:16.092Z,100395
2018-07-06T11:18:21.570Z,100401
2018-07-06T11:19:41.436Z,100398
2018-07-06T11:20:46.618Z,100401
2018-07-06T11:21:51.746Z,100398
2018-07-06T11:22:56.959Z,100401
2018-07-06T11:24:02.119Z,100392
2018-07-06T11:25:07.372Z,100398
2018-07-06T11:26:11.831Z,100389
2018-07-06T11:27:17.469Z,100395
2018-07-06T11:28:22.137Z,100404
2018-07-06T11:29:27.584Z,100392
2018-07-06T11:30:32.870Z,100389
2018-07-06T11:31:38.332Z,100398
2018-07-06T11:32:43.701Z,100389
2018-07-06T11:33:49.029Z,100386
2018-07-06T11:34:54.213Z,100407
2018-07-06T11:35:59.370Z,100395
2018-07-06T11:37:04.197Z,100401
2018-07-06T11:38:09.035Z,100395
2018-07-06T11:39:15.712Z,100398
2018-07-06T11:40:20.852Z,100392
2018-07-06T11:41:26.020Z,100381
2018-07-06T11:42:31.466Z,100386
2018-07-06T11:43:36.819Z,100395
2018-07-06T11:44:41.991Z,100395
2018-07-06T11:45:47.726Z,100386
2018-07-06T11:46:52.730Z,100395
2018-07-06T11:47:58.250Z,100389
2018-07-06T11:49:03.970Z,100392
2018-07-06T11:50:09.409Z,100395
2018-07-06T11:51:14.336Z,100386
2018-07-06T11:52:19.965Z,100389
2018-07-06T11:53:25.120Z,100383
2018-07-06T11:54:31.372Z,100375
2018-07-06T11:55:36.553Z,100386
2018-07-06T11:56:41.717Z,100380
2018-07-06T11:57:47.308Z,100392
2018-07-06T11:58:52.198Z,100380
2018-07-06T11:59:57.387Z,100389
2018-07-06T12:01:02.630Z,100398
2018-07-06T12:02:06.648Z,100395
2018-07-06T12:03:11.240Z,100392
2018-07-06T12:04:17.172Z,100380
2018-07-06T12:05:23.058Z,100380
2018-07-06T12:06:28.425Z,100386
2018-07-06T12:07:33.597Z,100377
2018-07-06T12:08:39.037Z,100380
2018-07-06T12:09:44.446Z,100386
2018-07-06T12:10:49.610Z,100386
2018-07-06T12:11:54.930Z,100383
2018-07-06T12:13:00.646Z,100386
2018-07-06T12:14:05.525Z,100380
2018-07-06T12:15:10.435Z,100389
2018-07-06T12:16:15.431Z,100374
2018-07-06T12:17:20.310Z,100363
2018-07-06T12:18:25.295Z,100374
2018-07-06T12:19:30.193Z,100368
2018-07-06T12:20:35.668Z,100374
2018-07-06T12:21:41.069Z,100377
2018-07-06T12:22:46.577Z,100374
2018-07-06T12:23:51.778Z,100368
2018-07-06T12:24:56.945Z,100380
2018-07-06T12:26:02.400Z,100371
2018-07-06T12:27:06.730Z,100377
2018-07-06T12:28:12.128Z,100371
2018-07-06T12:29:17.555Z,100365
2018-07-06T12:30:22.998Z,100374
2018-07-06T12:31:28.273Z,100371
2018-07-06T12:32:33.161Z,100377
2018-07-06T12:33:38.731Z,100374
2018-07-06T12:34:43.903Z,100380
2018-07-06T12:35:49.079Z,100371
2018-07-06T12:36:54.347Z,100371
2018-07-06T12:37:59.928Z,100368
2018-07-06T12:39:05.083Z,100371
2018-07-06T12:40:09.474Z,100374
2018-07-06T12:41:14.765Z,100374
2018-07-06T12:42:20.317Z,100374
2018-07-06T12:43:26.112Z,100374
2018-07-06T12:44:30.688Z,100374
2018-07-06T12:45:36.401Z,100365
2018-07-06T12:46:41.263Z,100368
2018-07-06T12:47:46.142Z,100365
2018-07-06T12:48:51.479Z,100362
2018-07-06T12:49:57.023Z,100360
2018-07-06T12:51:02.395Z,100360
2018-07-06T12:52:08.313Z,100354
2018-07-06T12:53:13.563Z,100362
2018-07-06T12:54:17.883Z,100365
2018-07-06T12:55:23.009Z,100362
2018-07-06T12:56:28.169Z,100357
2018-07-06T12:57:33.628Z,100359
2018-07-06T12:58:39.643Z,100362
2018-07-06T12:59:45.836Z,100365
2018-07-06T13:00:51.150Z,100362
2018-07-06T13:01:56.912Z,100365
2018-07-06T13:03:02.387Z,100359
2018-07-06T13:04:07.555Z,100368
2018-07-06T13:05:12.998Z,100362
2018-07-06T13:06:18.156Z,100362
2018-07-06T13:07:23.397Z,100354
2018-07-06T13:08:28.551Z,100356
2018-07-06T13:09:33.836Z,100345
2018-07-06T13:10:38.702Z,100362
2018-07-06T13:11:44.145Z,100362
2018-07-06T13:12:49.832Z,100351
2018-07-06T13:13:54.994Z,100359
2018-07-06T13:15:00.345Z,100359
2018-07-06T13:16:05.750Z,100359
2018-07-06T13:17:10.980Z,100356
2018-07-06T13:18:16.133Z,100365
2018-07-06T13:19:21.642Z,100356
2018-07-06T13:20:27.143Z,100353
2018-07-06T13:21:32.581Z,100359
2018-07-06T13:22:38.023Z,100365
2018-07-06T13:23:43.185Z,100353
2018-07-06T13:24:48.889Z,100356
2018-07-06T13:25:54.439Z,100348
2018-07-06T13:26:59.976Z,100348
2018-07-06T13:28:05.540Z,100350
2018-07-06T13:29:10.699Z,100350
2018-07-06T13:30:16.146Z,100350
2018-07-06T13:31:21.840Z,100348
2018-07-06T13:32:27.005Z,100353
2018-07-06T13:33:32.319Z,100348
2018-07-06T13:34:38.133Z,100350
2018-07-06T13:35:43.580Z,100359
2018-07-06T13:36:48.995Z,100350
2018-07-06T13:37:54.159Z,100353